Time;durP1;ratioP1;P1;durP2;ratioP2;P2;SDS_P1;SDS_P2;PMS_P1;PMS_P2;Temp;Humidity;BMP_temperature;BMP_pressure;BME280_temperature;BME280_humidity;BME280_pressure;Samples;Min_cycle;Max_cycle;Signal;HPM_P1;HPM_P2
2022/07/24 00:02:09;;;;;;;18.08;13.35;;;;;;;25.62;63.37;98016.75;5014773;28;20312;-78
2022/07/24 00:04:35;;;;;;;14.82;7.90;;;;;;;25.21;66.40;98030.09;5013858;28;20494;-79
2022/07/24 00:07:00;;;;;;;11.15;8.60;;;;;;;25.09;71.00;98047.22;5019778;28;20030;-78
2022/07/24 00:09:25;;;;;;;9.70;7.95;;;;;;;24.93;72.42;98047.50;5019006;28;20532;-78
2022/07/24 00:11:50;;;;;;;16.35;9.88;;;;;;;24.82;78.07;98051.38;5016484;28;20117;-77
2022/07/24 00:14:16;;;;;;;19.83;10.70;;;;;;;24.58;79.45;98057.53;5014544;28;20029;-75
2022/07/24 00:16:41;;;;;;;14.80;10.18;;;;;;;24.10;86.25;98068.56;5015593;28;20270;-75
2022/07/24 00:19:07;;;;;;;19.50;11.18;;;;;;;23.74;98.16;98089.69;5012072;28;20037;-74
2022/07/24 00:21:32;;;;;;;16.63;10.55;;;;;;;23.33;99.15;98094.25;5011943;28;20448;-78
2022/07/24 00:23:58;;;;;;;17.35;10.70;;;;;;;23.33;100.00;98104.59;5012239;28;20037;-75
2022/07/24 00:26:23;;;;;;;16.38;11.00;;;;;;;23.29;100.00;98098.16;5011827;28;20033;-74
2022/07/24 00:28:49;;;;;;;20.15;10.80;;;;;;;23.15;100.00;98093.13;5011704;28;20080;-73
2022/07/24 00:31:15;;;;;;;16.58;9.90;;;;;;;23.04;100.00;98099.72;5011920;28;20477;-73
2022/07/24 00:33:41;;;;;;;12.55;10.35;;;;;;;23.12;100.00;98102.25;5012454;28;20072;-77
2022/07/24 00:36:06;;;;;;;14.10;9.98;;;;;;;22.97;100.00;98097.63;5011407;28;20137;-74
2022/07/24 00:38:32;;;;;;;14.73;9.95;;;;;;;22.94;100.00;98110.34;5011496;28;20030;-74
2022/07/24 00:40:58;;;;;;;14.55;10.35;;;;;;;22.92;100.00;98112.72;5011008;28;20095;-73
2022/07/24 00:43:23;;;;;;;15.73;11.13;;;;;;;22.82;100.00;98124.50;5011798;28;20034;-75
2022/07/24 00:45:50;;;;;;;15.63;10.50;;;;;;;22.75;100.00;98137.50;5011499;28;20021;-73
2022/07/24 00:48:16;;;;;;;16.05;11.43;;;;;;;22.78;100.00;98128.38;5011889;28;20029;-75
2022/07/24 00:50:43;;;;;;;14.07;10.65;;;;;;;22.72;100.00;98132.66;5011153;28;20123;-76
2022/07/24 00:53:08;;;;;;;18.73;11.73;;;;;;;22.81;100.00;98119.25;4994269;28;20036;-77
2022/07/24 00:55:34;;;;;;;17.20;11.18;;;;;;;22.71;100.00;98100.38;4993845;28;20042;-76
2022/07/24 00:57:59;;;;;;;15.25;11.43;;;;;;;22.69;100.00;98092.38;5011252;28;20025;-75
2022/07/24 01:00:24;;;;;;;15.25;11.77;;;;;;;22.38;100.00;98093.38;5011323;28;20030;-74
2022/07/24 01:02:50;;;;;;;16.15;11.32;;;;;;;22.34;100.00;98097.25;5010844;28;20443;-72
2022/07/24 01:05:16;;;;;;;16.98;12.05;;;;;;;22.30;100.00;98104.75;5011061;28;20474;-73
2022/07/24 01:07:42;;;;;;;15.27;11.38;;;;;;;22.26;100.00;98124.19;5011202;28;20124;-74
2022/07/24 01:10:08;;;;;;;16.33;10.65;;;;;;;22.10;100.00;98142.16;5011304;28;20172;-74
2022/07/24 01:12:36;;;;;;;13.07;10.35;;;;;;;22.14;100.00;98157.78;5011110;28;20057;-74
2022/07/24 01:15:02;;;;;;;16.65;11.77;;;;;;;22.11;100.00;98149.34;5011019;28;20025;-74
2022/07/24 01:17:32;;;;;;;16.90;12.00;;;;;;;22.20;100.00;98131.25;5012442;28;20496;-73
2022/07/24 01:19:58;;;;;;;14.68;12.43;;;;;;;22.23;100.00;98136.06;5010767;28;20471;-77
2022/07/24 01:22:25;;;;;;;20.13;11.68;;;;;;;22.04;100.00;98124.13;5010587;28;20549;-77
2022/07/24 01:24:51;;;;;;;15.35;12.80;;;;;;;22.15;100.00;98128.72;5011321;28;20402;-78
2022/07/24 01:27:16;;;;;;;19.58;11.60;;;;;;;22.10;100.00;98123.47;4993348;28;20022;-77
2022/07/24 01:29:42;;;;;;;18.25;13.23;;;;;;;22.20;100.00;98131.25;5010917;28;20038;-74
2022/07/24 01:32:07;;;;;;;16.92;12.98;;;;;;;22.22;100.00;98128.88;5010734;28;20030;-76
2022/07/24 01:34:32;;;;;;;15.30;12.07;;;;;;;22.08;100.00;98127.78;5010713;28;20040;-75
2022/07/24 01:36:58;;;;;;;19.75;12.60;;;;;;;21.84;100.00;98126.84;5010914;28;20128;-75
2022/07/24 01:39:23;;;;;;;16.02;12.95;;;;;;;21.86;100.00;98109.78;5010871;28;20026;-75
2022/07/24 01:41:49;;;;;;;17.23;12.60;;;;;;;21.85;100.00;98102.59;5011622;28;20398;-76
2022/07/24 01:44:14;;;;;;;15.38;12.35;;;;;;;21.90;100.00;98098.75;5011263;28;20053;-75
2022/07/24 01:46:40;;;;;;;16.20;12.77;;;;;;;22.13;100.00;98102.41;5010838;28;20101;-76
2022/07/24 01:49:05;;;;;;;17.70;13.13;;;;;;;22.28;100.00;98088.38;4993579;28;20380;-78
2022/07/24 01:51:30;;;;;;;18.38;12.65;;;;;;;22.33;100.00;98085.28;5010908;28;20122;-78
2022/07/24 01:53:56;;;;;;;16.50;12.45;;;;;;;22.33;100.00;98088.06;5013754;28;20018;-80
2022/07/24 01:56:21;;;;;;;18.95;12.23;;;;;;;22.19;100.00;98095.34;5014391;28;20041;-79
2022/07/24 01:58:46;;;;;;;17.08;12.40;;;;;;;22.05;100.00;98092.31;5015580;28;20087;-84
2022/07/24 02:01:12;;;;;;;14.07;11.85;;;;;;;22.00;100.00;98087.81;5027447;28;20026;-82
2022/07/24 02:03:38;;;;;;;16.52;12.32;;;;;;;21.75;100.00;98087.25;5024524;28;20069;-83
2022/07/24 02:06:04;;;;;;;15.93;12.40;;;;;;;21.75;100.00;98083.66;5020970;28;20368;-83
2022/07/24 02:08:29;;;;;;;16.33;11.65;;;;;;;21.70;100.00;98075.63;5028214;28;20102;-82
2022/07/24 02:10:55;;;;;;;12.57;10.27;;;;;;;21.63;100.00;98084.63;5029760;28;20060;-84
2022/07/24 02:13:20;;;;;;;15.75;11.07;;;;;;;21.58;100.00;98090.47;5006248;28;20037;-82
2022/07/24 02:15:45;;;;;;;14.68;10.80;;;;;;;21.43;100.00;98093.28;5020983;28;20034;-84
2022/07/24 02:18:10;;;;;;;17.63;11.38;;;;;;;21.36;100.00;98082.81;5034676;28;20025;-83
2022/07/24 02:20:36;;;;;;;14.07;11.23;;;;;;;21.38;100.00;98090.78;5030829;28;20026;-82
2022/07/24 02:23:01;;;;;;;17.08;11.25;;;;;;;21.36;100.00;98091.16;5023360;28;20033;-83
2022/07/24 02:25:27;;;;;;;15.05;12.00;;;;;;;21.41;100.00;98107.59;5019044;28;20034;-79
2022/07/24 02:27:52;;;;;;;18.23;12.05;;;;;;;21.44;100.00;98114.41;5019455;28;20431;-80
2022/07/24 02:30:20;;;;;;;20.08;12.48;;;;;;;21.57;100.00;98113.94;5022945;28;20065;-81
2022/07/24 02:32:46;;;;;;;14.98;11.55;;;;;;;21.55;100.00;98107.09;5023005;28;20023;-79
2022/07/24 02:35:11;;;;;;;20.35;12.48;;;;;;;21.44;100.00;98083.78;5017686;28;20049;-79
2022/07/24 02:37:43;;;;;;;17.38;11.98;;;;;;;21.51;100.00;98095.06;5018428;28;20028;-80
2022/07/24 02:40:09;;;;;;;16.55;12.00;;;;;;;21.47;100.00;98086.63;5015979;28;20041;-78
2022/07/24 02:42:35;;;;;;;22.13;12.23;;;;;;;21.55;100.00;98084.84;5014408;28;20036;-79
2022/07/24 02:45:01;;;;;;;15.77;12.18;;;;;;;21.49;100.00;98089.84;5017480;28;20025;-78
2022/07/24 02:47:26;;;;;;;21.05;13.45;;;;;;;21.47;100.00;98089.44;5015269;28;20031;-81
2022/07/24 02:49:52;;;;;;;17.65;13.00;;;;;;;21.39;100.00;98095.19;5015532;28;20034;-78
2022/07/24 02:52:17;;;;;;;16.73;12.65;;;;;;;21.19;100.00;98092.38;5014646;28;20034;-79
2022/07/24 02:54:42;;;;;;;17.50;12.60;;;;;;;21.20;100.00;98099.56;5016810;28;20025;-80
2022/07/24 02:57:08;;;;;;;15.18;12.00;;;;;;;21.13;100.00;98116.06;5014028;28;20033;-77
2022/07/24 02:59:33;;;;;;;13.98;11.82;;;;;;;21.14;100.00;98120.47;5013696;28;20121;-77
2022/07/24 03:01:58;;;;;;;18.92;12.98;;;;;;;21.08;100.00;98118.28;4995859;28;20026;-77
2022/07/24 03:04:24;;;;;;;17.58;12.00;;;;;;;21.15;100.00;98124.03;5003688;28;20426;-82
2022/07/24 03:06:49;;;;;;;14.63;11.98;;;;;;;21.07;100.00;98130.56;5009921;28;20065;-79
2022/07/24 03:09:14;;;;;;;20.90;13.07;;;;;;;21.13;100.00;98131.94;5015562;28;20486;-78
2022/07/24 03:11:40;;;;;;;14.95;12.95;;;;;;;21.22;100.00;98130.59;5002162;28;20497;-79
2022/07/24 03:14:05;;;;;;;19.23;13.27;;;;;;;21.23;100.00;98135.00;5002211;28;20029;-80
2022/07/24 03:16:31;;;;;;;17.30;12.70;;;;;;;21.22;100.00;98135.34;4997324;28;20025;-78
2022/07/24 03:18:56;;;;;;;20.77;13.10;;;;;;;21.35;100.00;98140.47;4994352;28;20157;-78
2022/07/24 03:21:22;;;;;;;16.77;12.82;;;;;;;21.37;100.00;98142.88;4995203;28;20200;-78
2022/07/24 03:23:47;;;;;;;16.33;12.45;;;;;;;21.34;100.00;98144.41;5013213;28;20029;-78
2022/07/24 03:26:12;;;;;;;20.15;13.95;;;;;;;21.35;100.00;98140.47;5012215;28;20030;-80
2022/07/24 03:28:38;;;;;;;19.23;13.13;;;;;;;21.33;100.00;98139.22;5012402;28;20030;-78
2022/07/24 03:31:03;;;;;;;19.42;13.30;;;;;;;21.05;100.00;98135.69;5012568;28;20060;-79
2022/07/24 03:33:28;;;;;;;18.60;13.13;;;;;;;20.95;100.00;98141.78;5013164;28;20156;-78
2022/07/24 03:35:54;;;;;;;17.45;11.77;;;;;;;20.59;100.00;98123.38;5013339;28;20513;-78
2022/07/24 03:38:20;;;;;;;15.93;12.30;;;;;;;20.61;100.00;98132.97;5013018;28;20036;-76
2022/07/24 03:40:45;;;;;;;17.38;13.20;;;;;;;20.57;100.00;98129.31;5013098;28;20021;-80
2022/07/24 03:43:10;;;;;;;16.77;12.65;;;;;;;20.63;100.00;98130.66;5013657;28;20036;-79
2022/07/24 03:45:35;;;;;;;15.15;12.45;;;;;;;20.64;100.00;98129.47;4996278;28;20069;-80
2022/07/24 03:48:02;;;;;;;15.98;11.82;;;;;;;20.76;100.00;98128.59;5013596;28;20121;-78
2022/07/24 03:50:28;;;;;;;16.80;12.77;;;;;;;20.83;100.00;98129.56;5012932;28;20479;-78
2022/07/24 03:52:53;;;;;;;20.17;12.88;;;;;;;21.02;100.00;98139.97;5012791;28;20041;-80
2022/07/24 03:55:18;;;;;;;16.70;12.02;;;;;;;21.14;100.00;98144.69;5013530;28;20491;-79
2022/07/24 03:57:44;;;;;;;17.60;12.40;;;;;;;21.14;100.00;98158.63;5012314;28;20026;-80
2022/07/24 04:00:10;;;;;;;15.68;12.65;;;;;;;21.07;100.00;98155.63;5013177;28;20036;-78
2022/07/24 04:02:35;;;;;;;15.20;12.57;;;;;;;21.06;100.00;98149.25;5013072;28;20042;-79
2022/07/24 04:05:01;;;;;;;16.83;12.50;;;;;;;21.13;100.00;98160.59;5013377;28;20026;-81
2022/07/24 04:07:26;;;;;;;24.45;12.85;;;;;;;21.14;100.00;98161.41;5013635;28;20029;-79
2022/07/24 04:09:53;;;;;;;16.85;13.40;;;;;;;21.10;100.00;98166.88;5013467;28;20029;-78
2022/07/24 04:12:18;;;;;;;19.13;14.02;;;;;;;20.95;100.00;98159.31;5018921;28;20029;-80
2022/07/24 04:14:43;;;;;;;15.90;13.13;;;;;;;20.98;100.00;98163.34;4997052;28;20075;-78
2022/07/24 04:17:09;;;;;;;17.95;13.02;;;;;;;21.19;100.00;98158.34;5013252;28;20108;-81
2022/07/24 04:19:34;;;;;;;16.77;13.30;;;;;;;21.23;100.00;98168.41;5013897;28;20058;-80
2022/07/24 04:21:59;;;;;;;19.65;13.23;;;;;;;21.23;100.00;98164.81;5013386;28;20025;-80
2022/07/24 04:24:25;;;;;;;16.38;13.32;;;;;;;21.28;100.00;98170.91;5014976;28;20018;-80
2022/07/24 04:26:50;;;;;;;17.88;13.07;;;;;;;21.26;100.00;98164.91;5014148;28;20026;-81
2022/07/24 04:29:16;;;;;;;18.50;13.25;;;;;;;21.17;100.00;98178.19;5015183;28;20029;-82
2022/07/24 04:31:41;;;;;;;15.82;13.38;;;;;;;21.21;100.00;98178.25;4996456;28;20133;-79
2022/07/24 04:34:06;;;;;;;17.45;13.20;;;;;;;21.13;100.00;98174.50;5014420;28;20029;-80
2022/07/24 04:36:32;;;;;;;17.80;13.50;;;;;;;21.09;100.00;98176.38;5013728;28;20046;-81
2022/07/24 04:38:57;;;;;;;17.70;13.07;;;;;;;21.16;100.00;98173.78;5014420;28;20034;-83
2022/07/24 04:41:23;;;;;;;20.58;12.98;;;;;;;21.20;100.00;98188.59;5001359;28;20093;-82
2022/07/24 04:43:49;;;;;;;16.63;12.57;;;;;;;21.22;100.00;98194.59;5018498;28;20026;-81
2022/07/24 04:46:15;;;;;;;16.60;13.18;;;;;;;21.13;100.00;98193.97;5013270;28;20025;-80
2022/07/24 04:48:40;;;;;;;16.00;12.90;;;;;;;21.21;100.00;98198.53;5013987;28;20030;-80
2022/07/24 04:51:05;;;;;;;18.13;13.23;;;;;;;21.28;100.00;98207.06;5014305;28;20430;-82
2022/07/24 04:53:31;;;;;;;16.63;13.35;;;;;;;21.33;100.00;98215.16;5014291;28;20118;-80
2022/07/24 04:55:57;;;;;;;18.00;12.50;;;;;;;21.50;100.00;98207.59;5014304;28;20038;-81
2022/07/24 04:58:22;;;;;;;19.15;14.05;;;;;;;21.61;100.00;98209.50;5013302;28;20034;-80
2022/07/24 05:00:48;;;;;;;16.10;13.07;;;;;;;21.71;100.00;98213.66;5012758;28;20034;-82
2022/07/24 05:03:13;;;;;;;14.57;11.98;;;;;;;21.91;100.00;98220.97;5013166;28;20026;-81
2022/07/24 05:05:38;;;;;;;18.98;12.90;;;;;;;22.05;100.00;98229.66;5006308;28;20037;-80
2022/07/24 05:08:04;;;;;;;14.20;12.48;;;;;;;22.40;100.00;98227.63;5004609;28;20033;-81
2022/07/24 05:10:29;;;;;;;18.45;12.88;;;;;;;22.94;100.00;98232.31;4995273;28;20044;-82
2022/07/24 05:12:54;;;;;;;16.00;12.68;;;;;;;23.02;100.00;98234.09;4994839;28;20030;-81
2022/07/24 05:15:20;;;;;;;13.68;11.35;;;;;;;23.21;100.00;98242.38;4991465;28;20113;-79
2022/07/24 05:17:47;;;;;;;17.05;11.45;;;;;;;23.12;100.00;98243.84;4992505;28;20105;-78
2022/07/24 05:20:13;;;;;;;15.80;12.27;;;;;;;23.12;100.00;98247.41;4959037;28;20023;-79
2022/07/24 05:22:38;;;;;;;14.43;11.13;;;;;;;23.45;100.00;98241.25;4993426;28;20501;-81
2022/07/24 05:25:04;;;;;;;16.77;11.75;;;;;;;23.61;100.00;98250.31;5010976;28;20040;-76
2022/07/24 05:27:29;;;;;;;13.57;11.27;;;;;;;23.67;100.00;98256.38;5015041;28;20022;-80
2022/07/24 05:29:55;;;;;;;14.80;10.70;;;;;;;23.69;100.00;98262.41;5019683;28;20077;-79
2022/07/24 05:32:20;;;;;;;14.25;11.25;;;;;;;23.89;100.00;98267.53;5012262;28;20049;-80
2022/07/24 05:34:45;;;;;;;13.52;10.73;;;;;;;23.93;100.00;98267.59;5014519;28;20466;-81
2022/07/24 05:37:11;;;;;;;16.50;12.07;;;;;;;23.90;100.00;98263.56;5014362;28;20129;-80
2022/07/24 05:39:36;;;;;;;13.88;12.23;;;;;;;23.72;100.00;98276.44;5014437;28;20900;-81
2022/07/24 05:42:03;;;;;;;14.50;11.88;;;;;;;23.58;100.00;98267.00;5033088;28;20022;-86
2022/07/24 05:44:28;;;;;;;17.92;12.27;;;;;;;23.73;100.00;98268.88;5034226;28;20046;-83
2022/07/24 05:46:54;;;;;;;17.73;11.85;;;;;;;23.75;100.00;98266.50;5033990;28;20002;-80
2022/07/24 05:49:19;;;;;;;14.88;11.48;;;;;;;23.99;100.00;98278.06;5031699;28;20089;-81
2022/07/24 05:51:44;;;;;;;16.20;12.77;;;;;;;23.69;100.00;98273.56;5020761;28;20042;-81
2022/07/24 05:54:10;;;;;;;14.88;11.90;;;;;;;24.17;100.00;98281.19;5004141;28;20029;-80
2022/07/24 05:56:35;;;;;;;17.60;12.20;;;;;;;24.16;100.00;98267.56;5011755;28;20026;-78
2022/07/24 05:59:00;;;;;;;14.65;11.57;;;;;;;24.22;100.00;98272.47;5011147;28;20045;-79
2022/07/24 06:01:26;;;;;;;17.50;11.38;;;;;;;24.24;100.00;98267.31;5011360;28;20066;-78
2022/07/24 06:03:51;;;;;;;14.90;11.95;;;;;;;24.21;100.00;98270.88;4993283;28;20088;-79
2022/07/24 06:06:16;;;;;;;13.48;10.70;;;;;;;24.22;100.00;98260.47;5005345;28;20030;-84
2022/07/24 06:08:42;;;;;;;18.90;11.85;;;;;;;24.21;100.00;98268.06;5022332;28;20018;-81
2022/07/24 06:11:08;;;;;;;18.73;11.52;;;;;;;24.27;100.00;98263.75;5012449;28;20026;-84
2022/07/24 06:13:37;;;;;;;14.95;11.27;;;;;;;24.21;100.00;98256.88;5026348;28;20017;-80
2022/07/24 06:16:02;;;;;;;13.98;10.73;;;;;;;24.22;100.00;98249.28;5015841;28;20055;-80
2022/07/24 06:18:28;;;;;;;14.48;11.15;;;;;;;24.29;100.00;98247.41;5010496;28;20038;-78
2022/07/24 06:20:53;;;;;;;17.75;11.82;;;;;;;24.52;100.00;98250.91;5012539;28;20060;-79
2022/07/24 06:23:19;;;;;;;19.08;11.15;;;;;;;25.02;100.00;98254.34;5013346;28;20025;-76
2022/07/24 06:25:44;;;;;;;16.20;10.25;;;;;;;25.09;100.00;98251.63;5012902;28;20018;-76
2022/07/24 06:28:09;;;;;;;12.02;10.80;;;;;;;25.24;100.00;98264.59;5013460;28;20033;-76
2022/07/24 06:30:35;;;;;;;15.32;11.07;;;;;;;25.25;100.00;98265.41;5010767;28;21455;-77
2022/07/24 06:33:00;;;;;;;11.82;10.32;;;;;;;25.23;100.00;98267.75;5011441;28;20041;-78
2022/07/24 06:35:27;;;;;;;12.27;10.70;;;;;;;25.48;100.00;98272.41;5010810;28;20034;-77
2022/07/24 06:37:55;;;;;;;13.30;11.18;;;;;;;25.59;100.00;98283.78;5006604;28;20092;-81
2022/07/24 06:40:21;;;;;;;14.18;9.85;;;;;;;25.19;100.00;98278.91;5004737;28;20034;-78
2022/07/24 06:42:48;;;;;;;14.32;11.50;;;;;;;25.41;100.00;98285.53;5011469;28;20014;-74
2022/07/24 06:45:14;;;;;;;13.05;9.70;;;;;;;26.13;100.00;98288.59;5011248;28;20021;-73
2022/07/24 06:47:40;;;;;;;17.55;10.80;;;;;;;26.02;100.00;98270.91;5011840;28;20034;-72
2022/07/24 06:50:06;;;;;;;13.15;9.65;;;;;;;26.07;100.00;98279.75;5012774;28;20494;-72
2022/07/24 06:52:31;;;;;;;13.77;8.90;;;;;;;26.35;99.46;98279.16;5015143;28;20030;-74
2022/07/24 06:54:57;;;;;;;11.20;8.45;;;;;;;26.74;96.24;98275.78;5013775;28;20057;-72
2022/07/24 06:57:23;;;;;;;9.88;8.45;;;;;;;26.80;91.26;98279.81;5010913;28;20116;-72
2022/07/24 06:59:48;;;;;;;8.82;7.93;;;;;;;26.36;91.71;98283.59;5010976;28;20390;-72
2022/07/24 07:02:13;;;;;;;11.70;8.35;;;;;;;26.38;91.72;98275.56;5009776;28;20030;-72
2022/07/24 07:04:39;;;;;;;9.82;7.22;;;;;;;26.37;89.02;98274.00;5008869;28;20488;-74
2022/07/24 07:07:04;;;;;;;15.05;7.88;;;;;;;25.98;93.13;98273.69;5005332;28;20026;-75
2022/07/24 07:09:29;;;;;;;9.25;7.53;;;;;;;26.07;91.93;98274.16;5005432;28;20080;-73
2022/07/24 07:11:55;;;;;;;8.35;7.28;;;;;;;26.20;91.45;98271.84;5007694;28;20182;-72
2022/07/24 07:14:20;;;;;;;9.85;8.68;;;;;;;26.05;92.37;98273.75;5009188;28;20029;-73
2022/07/24 07:16:46;;;;;;;12.18;8.10;;;;;;;26.29;91.71;98269.50;5009585;28;20509;-75
2022/07/24 07:19:11;;;;;;;11.38;7.80;;;;;;;26.54;91.45;98269.66;5009594;28;20398;-74
2022/07/24 07:21:37;;;;;;;9.20;7.68;;;;;;;26.79;88.30;98269.75;5009134;28;20133;-75
2022/07/24 07:24:03;;;;;;;8.40;7.50;;;;;;;26.92;87.43;98280.28;5009390;28;20045;-74
2022/07/24 07:26:29;;;;;;;9.38;7.50;;;;;;;27.30;85.08;98273.19;5013994;28;20502;-76
2022/07/24 07:28:54;;;;;;;8.80;6.97;;;;;;;27.36;83.00;98267.97;5018062;28;20060;-76
2022/07/24 07:31:19;;;;;;;9.07;7.33;;;;;;;27.20;83.80;98271.16;5017761;28;20026;-76
2022/07/24 07:33:45;;;;;;;8.60;7.78;;;;;;;27.20;84.84;98278.78;5009903;28;20362;-75
2022/07/24 07:36:10;;;;;;;8.70;7.40;;;;;;;27.34;84.31;98274.00;5009501;28;20038;-75
2022/07/24 07:38:37;;;;;;;10.82;7.82;;;;;;;27.50;82.39;98270.84;5008084;28;20125;-74
2022/07/24 07:41:03;;;;;;;9.10;7.00;;;;;;;27.18;83.36;98269.94;5008661;28;20065;-76
2022/07/24 07:43:29;;;;;;;10.05;7.40;;;;;;;27.67;80.54;98268.03;4991651;28;20029;-74
2022/07/24 07:45:55;;;;;;;11.50;8.13;;;;;;;27.67;80.43;98278.47;5009509;28;20034;-74
2022/07/24 07:48:20;;;;;;;9.40;7.18;;;;;;;27.05;83.25;98263.88;5008805;28;20380;-76
2022/07/24 07:50:45;;;;;;;8.00;7.20;;;;;;;27.02;83.02;98267.50;5007831;28;20026;-75
2022/07/24 07:53:11;;;;;;;7.80;7.00;;;;;;;27.62;80.22;98268.47;5008502;28;20030;-74
2022/07/24 07:55:36;;;;;;;11.43;6.78;;;;;;;27.93;78.10;98266.84;5008950;28;20071;-72
2022/07/24 07:58:02;;;;;;;8.38;7.43;;;;;;;27.96;79.78;98276.50;5010394;28;20693;-72
2022/07/24 08:00:27;;;;;;;8.63;6.93;;;;;;;27.54;81.45;98275.25;5001381;28;20014;-73
2022/07/24 08:02:55;;;;;;;11.38;7.57;;;;;;;27.44;79.86;98267.59;5012125;28;20434;-75
2022/07/24 08:05:21;;;;;;;8.25;7.05;;;;;;;26.65;84.26;98264.09;5011071;28;20049;-72
2022/07/24 08:07:46;;;;;;;10.18;7.95;;;;;;;26.69;83.20;98257.28;5011164;28;20057;-73
2022/07/24 08:10:12;;;;;;;12.73;7.63;;;;;;;27.44;81.42;98264.78;5011411;28;20030;-74
2022/07/24 08:12:37;;;;;;;10.13;7.55;;;;;;;27.22;81.38;98263.16;5011481;28;20279;-73
2022/07/24 08:15:03;;;;;;;12.00;7.65;;;;;;;27.06;82.02;98259.88;5009768;28;20164;-72
2022/07/24 08:17:28;;;;;;;10.20;7.53;;;;;;;26.91;82.66;98261.81;5012081;28;20033;-73
2022/07/24 08:19:54;;;;;;;9.50;6.55;;;;;;;27.75;77.44;98265.25;5010902;28;20451;-74
2022/07/24 08:22:19;;;;;;;7.87;6.50;;;;;;;29.45;69.56;98274.03;5011288;28;20029;-76
2022/07/24 08:24:45;;;;;;;9.82;7.30;;;;;;;30.94;61.58;98287.63;4993207;28;20333;-72
2022/07/24 08:27:10;;;;;;;9.30;7.13;;;;;;;31.98;55.96;98278.09;5009228;28;20036;-73
2022/07/24 08:29:35;;;;;;;6.90;6.20;;;;;;;32.98;51.90;98279.91;5009399;28;20335;-74
2022/07/24 08:32:00;;;;;;;7.13;6.43;;;;;;;35.03;45.54;98272.81;5009900;28;20320;-73
2022/07/24 08:34:27;;;;;;;9.13;6.47;;;;;;;35.96;42.00;98275.19;5010075;28;20624;-75
2022/07/24 08:36:52;;;;;;;7.72;6.88;;;;;;;35.55;41.83;98275.31;5009428;28;20053;-75
2022/07/24 08:39:19;;;;;;;6.90;5.95;;;;;;;36.18;40.10;98266.00;5010556;28;20041;-77
2022/07/24 08:41:44;;;;;;;15.35;6.38;;;;;;;32.78;51.54;98272.19;5010593;28;20048;-74
2022/07/24 08:44:11;;;;;;;9.68;6.35;;;;;;;30.79;57.69;98259.53;5011105;28;20069;-75
2022/07/24 08:46:37;;;;;;;8.40;7.13;;;;;;;28.89;64.49;98252.56;5011571;28;20112;-73
2022/07/24 08:49:06;;;;;;;10.80;7.85;;;;;;;28.68;64.89;98245.03;5010912;28;20069;-74
2022/07/24 08:51:35;;;;;;;7.95;7.13;;;;;;;28.08;66.15;98256.41;5010901;28;20026;-74
2022/07/24 08:54:02;;;;;;;9.63;7.63;;;;;;;29.48;61.20;98248.63;5011294;28;20034;-74
2022/07/24 08:56:28;;;;;;;11.60;6.97;;;;;;;32.38;53.21;98264.88;5010959;28;20153;-74
2022/07/24 08:58:53;;;;;;;8.05;6.68;;;;;;;33.17;49.86;98268.59;5010632;28;20109;-73
2022/07/24 09:01:18;;;;;;;8.52;7.20;;;;;;;34.23;47.69;98266.09;5010480;28;20108;-75
2022/07/24 09:03:46;;;;;;;8.65;7.47;;;;;;;32.97;49.52;98264.94;5010913;28;20416;-74
2022/07/24 09:06:13;;;;;;;12.10;7.13;;;;;;;33.36;49.53;98261.28;5016865;28;20751;-75
2022/07/24 09:08:57;;;;;;;7.75;6.88;;;;;;;33.79;47.18;98259.06;5013843;28;20044;-76
2022/07/24 09:11:22;;;;;;;9.77;6.28;;;;;;;33.90;44.86;98270.94;5010679;28;20565;-75
2022/07/24 09:16:35;;;;;;;8.35;6.43;;;;;;;33.91;46.44;98263.22;5011039;28;20033;-75
2022/07/24 09:19:09;;;;;;;7.53;6.73;;;;;;;35.28;43.20;98280.63;5010705;28;20025;-74
2022/07/24 09:21:37;;;;;;;8.32;6.53;;;;;;;33.39;47.09;98269.69;5010649;28;20275;-75
2022/07/24 09:24:18;;;;;;;9.13;7.32;;;;;;;33.86;45.49;98272.28;5010727;28;20069;-74
2022/07/24 09:26:44;;;;;;;7.70;6.32;;;;;;;33.63;46.07;98267.56;5010641;28;20034;-73
2022/07/24 09:29:11;;;;;;;7.85;6.50;;;;;;;35.16;42.67;98270.81;5010480;28;20029;-74
2022/07/24 09:32:00;;;;;;;9.15;7.45;;;;;;;36.39;39.75;98270.94;5010390;28;20038;-74
2022/07/24 09:34:27;;;;;;;8.77;6.28;;;;;;;38.28;36.19;98274.69;5010518;28;20064;-75
2022/07/24 09:37:02;;;;;;;6.90;6.10;;;;;;;35.79;40.33;98273.75;5010540;28;20570;-75
2022/07/24 09:39:31;;;;;;;8.00;6.10;;;;;;;36.29;39.93;98266.41;5010410;28;20091;-75
2022/07/24 09:41:57;;;;;;;9.18;6.78;;;;;;;36.42;39.06;98264.31;5010643;28;20034;-75
2022/07/24 09:44:25;;;;;;;7.28;6.55;;;;;;;36.20;39.86;98263.47;4992803;28;20566;-74
2022/07/24 09:47:01;;;;;;;8.57;6.57;;;;;;;36.20;39.73;98260.63;5010603;28;20041;-73
2022/07/24 09:49:28;;;;;;;6.97;6.22;;;;;;;35.91;39.64;98260.75;5010339;28;20478;-75
2022/07/24 09:52:05;;;;;;;8.82;6.68;;;;;;;36.44;38.39;98264.66;5010614;28;20057;-72
2022/07/24 09:54:36;;;;;;;9.07;6.70;;;;;;;36.24;39.41;98264.16;5010332;28;20030;-71
2022/07/24 09:57:24;;;;;;;6.82;6.13;;;;;;;37.26;37.97;98260.41;5010397;28;20022;-72
2022/07/24 10:00:03;;;;;;;8.55;6.32;;;;;;;37.13;37.83;98256.03;5010513;28;20499;-74
2022/07/24 10:02:31;;;;;;;7.65;6.85;;;;;;;34.42;42.01;98267.22;4992464;28;20034;-75
2022/07/24 10:04:59;;;;;;;7.10;6.00;;;;;;;32.88;44.82;98247.69;5010037;28;20109;-75
2022/07/24 10:07:26;;;;;;;10.43;6.30;;;;;;;33.55;43.57;98260.41;5010195;28;20029;-75
2022/07/24 10:09:56;;;;;;;7.93;7.13;;;;;;;31.94;46.52;98254.69;5010307;28;20029;-74
2022/07/24 10:12:24;;;;;;;8.35;6.57;;;;;;;31.93;48.99;98252.28;5010349;28;20029;-74
2022/07/24 10:14:52;;;;;;;8.77;6.72;;;;;;;33.65;44.72;98248.03;5012155;28;20064;-74
2022/07/24 10:17:19;;;;;;;10.73;6.85;;;;;;;33.16;46.37;98235.78;5013941;28;20026;-75
2022/07/24 10:19:46;;;;;;;7.10;6.40;;;;;;;32.94;45.15;98245.94;4996366;28;20032;-74
2022/07/24 10:22:20;;;;;;;7.80;6.00;;;;;;;32.44;46.61;98237.63;5013761;28;20022;-75
2022/07/24 10:25:04;;;;;;;6.83;6.13;;;;;;;34.15;43.82;98241.13;5013752;28;20042;-74
2022/07/24 10:27:37;;;;;;;6.93;5.78;;;;;;;34.88;40.91;98241.13;5013713;28;20366;-74
2022/07/24 10:30:08;;;;;;;9.57;6.27;;;;;;;35.08;41.00;98228.78;5013471;28;20036;-74
2022/07/24 10:32:35;;;;;;;6.97;6.13;;;;;;;33.52;43.28;98232.13;5013640;28;20041;-74
2022/07/24 10:35:18;;;;;;;8.13;6.55;;;;;;;32.82;44.57;98235.28;5013308;28;20080;-75
2022/07/24 10:38:09;;;;;;;7.05;6.35;;;;;;;32.10;46.68;98225.72;5013480;28;20441;-74
2022/07/24 10:40:44;;;;;;;7.85;6.80;;;;;;;33.22;44.13;98225.50;5013285;28;20402;-74
2022/07/24 10:43:20;;;;;;;8.00;6.95;;;;;;;33.14;45.25;98217.59;5013359;28;20036;-75
2022/07/24 10:45:48;;;;;;;7.43;6.55;;;;;;;32.05;47.17;98212.84;5013358;28;20438;-74
2022/07/24 10:48:20;;;;;;;8.52;6.53;;;;;;;32.21;47.59;98215.81;5013197;28;20036;-75
2022/07/24 10:50:57;;;;;;;8.20;6.03;;;;;;;31.18;49.57;98213.00;5013179;28;20026;-74
2022/07/24 10:53:29;;;;;;;8.50;6.45;;;;;;;30.99;50.50;98199.56;5012789;28;20038;-74
2022/07/24 10:56:23;;;;;;;6.88;6.05;;;;;;;31.24;50.01;98205.66;5013295;28;20034;-74
2022/07/24 10:59:33;;;;;;;8.02;6.95;;;;;;;30.82;50.97;98194.94;5012886;28;20041;-73
2022/07/24 11:02:28;;;;;;;7.78;5.25;;;;;;;31.30;49.85;98198.28;4975449;28;20038;-74
2022/07/24 11:05:30;;;;;;;10.30;6.30;;;;;;;31.00;50.65;98192.69;5013318;28;20045;-75
2022/07/24 11:08:14;;;;;;;8.25;5.90;;;;;;;30.17;51.84;98183.56;5013077;28;20034;-74
2022/07/24 11:10:50;;;;;;;8.05;6.15;;;;;;;29.68;53.53;98184.03;4995417;28;20072;-74
2022/07/24 11:13:31;;;;;;;8.00;6.90;;;;;;;30.14;52.71;98173.09;5013205;28;20084;-74
2022/07/24 11:16:14;;;;;;;8.57;5.97;;;;;;;30.46;51.89;98171.97;4995595;28;20030;-74
2022/07/24 11:18:41;;;;;;;7.43;6.45;;;;;;;30.46;51.28;98167.13;5013984;28;20030;-75
2022/07/24 11:21:07;;;;;;;7.80;6.75;;;;;;;30.99;49.94;98169.25;5018227;28;20042;-76
2022/07/24 11:23:33;;;;;;;10.13;6.90;;;;;;;30.84;50.62;98169.88;5018493;28;20157;-75